sensor_id;sensor_type;location;lat;lon;timestamp;P1;durP1;ratioP1;P2;durP2;ratioP2
2161;SDS011;1087;50.226;8.682;2023-04-01T00:00:23;2.50;;;1.60;;
2161;SDS011;1087;50.226;8.682;2023-04-01T00:02:49;2.17;;;1.37;;
2161;SDS011;1087;50.226;8.682;2023-04-01T00:05:15;2.93;;;1.60;;
2161;SDS011;1087;50.226;8.682;2023-04-01T00:07:41;3.47;;;1.60;;
2161;SDS011;1087;50.226;8.682;2023-04-01T00:10:08;4.57;;;2.10;;
2161;SDS011;1087;50.226;8.682;2023-04-01T00:12:35;6.10;;;2.60;;
2161;SDS011;1087;50.226;8.682;2023-04-01T00:15:02;7.40;;;2.70;;
2161;SDS011;1087;50.226;8.682;2023-04-01T00:17:30;3.70;;;2.27;;
2161;SDS011;1087;50.226;8.682;2023-04-01T00:19:55;4.30;;;2.10;;
2161;SDS011;1087;50.226;8.682;2023-04-01T00:22:21;4.23;;;2.90;;
2161;SDS011;1087;50.226;8.682;2023-04-01T00:24:47;3.40;;;1.70;;
2161;SDS011;1087;50.226;8.682;2023-04-01T00:27:13;4.53;;;2.20;;
2161;SDS011;1087;50.226;8.682;2023-04-01T00:29:43;2.40;;;1.90;;
2161;SDS011;1087;50.226;8.682;2023-04-01T00:32:09;6.13;;;2.20;;
2161;SDS011;1087;50.226;8.682;2023-04-01T00:34:34;2.97;;;1.63;;
2161;SDS011;1087;50.226;8.682;2023-04-01T00:37:00;7.67;;;2.23;;
2161;SDS011;1087;50.226;8.682;2023-04-01T00:39:28;4.13;;;1.73;;
2161;SDS011;1087;50.226;8.682;2023-04-01T00:41:54;3.50;;;2.07;;
2161;SDS011;1087;50.226;8.682;2023-04-01T00:44:32;4.47;;;2.60;;
2161;SDS011;1087;50.226;8.682;2023-04-01T00:46:59;3.07;;;1.83;;
2161;SDS011;1087;50.226;8.682;2023-04-01T00:49:29;7.50;;;3.43;;
2161;SDS011;1087;50.226;8.682;2023-04-01T00:51:58;5.00;;;2.30;;
2161;SDS011;1087;50.226;8.682;2023-04-01T00:54:26;4.43;;;2.20;;
2161;SDS011;1087;50.226;8.682;2023-04-01T00:56:55;7.77;;;3.13;;
2161;SDS011;1087;50.226;8.682;2023-04-01T00:59:26;3.67;;;1.83;;
2161;SDS011;1087;50.226;8.682;2023-04-01T01:01:55;3.67;;;1.80;;
2161;SDS011;1087;50.226;8.682;2023-04-01T01:04:22;7.33;;;2.10;;
2161;SDS011;1087;50.226;8.682;2023-04-01T01:06:53;3.80;;;1.87;;
2161;SDS011;1087;50.226;8.682;2023-04-01T01:09:31;4.97;;;1.97;;
2161;SDS011;1087;50.226;8.682;2023-04-01T01:12:23;4.80;;;2.13;;
2161;SDS011;1087;50.226;8.682;2023-04-01T01:15:27;3.30;;;1.87;;
2161;SDS011;1087;50.226;8.682;2023-04-01T01:29:01;7.30;;;2.20;;
2161;SDS011;1087;50.226;8.682;2023-04-01T01:34:36;5.23;;;2.00;;
2161;SDS011;1087;50.226;8.682;2023-04-01T01:37:32;3.03;;;1.80;;
2161;SDS011;1087;50.226;8.682;2023-04-01T01:40:00;3.53;;;1.87;;
2161;SDS011;1087;50.226;8.682;2023-04-01T01:42:30;4.20;;;1.70;;
2161;SDS011;1087;50.226;8.682;2023-04-01T01:44:58;8.07;;;2.23;;
2161;SDS011;1087;50.226;8.682;2023-04-01T01:47:25;4.13;;;2.00;;
2161;SDS011;1087;50.226;8.682;2023-04-01T01:49:53;2.53;;;1.80;;
2161;SDS011;1087;50.226;8.682;2023-04-01T01:52:21;3.13;;;1.97;;
2161;SDS011;1087;50.226;8.682;2023-04-01T01:54:48;1.90;;;1.73;;
2161;SDS011;1087;50.226;8.682;2023-04-01T01:57:15;3.10;;;1.80;;
2161;SDS011;1087;50.226;8.682;2023-04-01T01:59:43;4.13;;;1.80;;
2161;SDS011;1087;50.226;8.682;2023-04-01T02:02:12;2.90;;;2.00;;
2161;SDS011;1087;50.226;8.682;2023-04-01T02:04:39;2.93;;;1.67;;
2161;SDS011;1087;50.226;8.682;2023-04-01T02:07:08;4.10;;;2.23;;
2161;SDS011;1087;50.226;8.682;2023-04-01T02:09:51;4.93;;;2.10;;
2161;SDS011;1087;50.226;8.682;2023-04-01T02:12:16;7.30;;;1.77;;
2161;SDS011;1087;50.226;8.682;2023-04-01T02:14:50;3.50;;;1.93;;
2161;SDS011;1087;50.226;8.682;2023-04-01T02:17:23;5.13;;;2.13;;
2161;SDS011;1087;50.226;8.682;2023-04-01T02:19:52;1.83;;;1.53;;
2161;SDS011;1087;50.226;8.682;2023-04-01T02:22:23;5.90;;;2.20;;
2161;SDS011;1087;50.226;8.682;2023-04-01T02:24:52;4.90;;;1.93;;
2161;SDS011;1087;50.226;8.682;2023-04-01T02:27:22;2.60;;;1.27;;
2161;SDS011;1087;50.226;8.682;2023-04-01T02:29:49;5.43;;;1.67;;
2161;SDS011;1087;50.226;8.682;2023-04-01T02:32:15;7.80;;;1.80;;
2161;SDS011;1087;50.226;8.682;2023-04-01T02:34:42;3.00;;;1.90;;
2161;SDS011;1087;50.226;8.682;2023-04-01T02:37:08;2.90;;;1.47;;
2161;SDS011;1087;50.226;8.682;2023-04-01T02:39:35;4.27;;;2.07;;
2161;SDS011;1087;50.226;8.682;2023-04-01T02:42:00;2.60;;;1.70;;
2161;SDS011;1087;50.226;8.682;2023-04-01T02:44:26;3.00;;;1.57;;
2161;SDS011;1087;50.226;8.682;2023-04-01T02:46:51;4.90;;;1.60;;
2161;SDS011;1087;50.226;8.682;2023-04-01T02:49:17;3.10;;;2.23;;
2161;SDS011;1087;50.226;8.682;2023-04-01T02:51:43;2.23;;;1.70;;
2161;SDS011;1087;50.226;8.682;2023-04-01T02:54:08;3.03;;;1.73;;
2161;SDS011;1087;50.226;8.682;2023-04-01T02:56:34;2.13;;;1.50;;
2161;SDS011;1087;50.226;8.682;2023-04-01T02:58:59;2.90;;;1.70;;
2161;SDS011;1087;50.226;8.682;2023-04-01T03:01:25;3.33;;;1.70;;
2161;SDS011;1087;50.226;8.682;2023-04-01T03:03:50;2.90;;;1.50;;
2161;SDS011;1087;50.226;8.682;2023-04-01T03:06:16;3.30;;;1.90;;
2161;SDS011;1087;50.226;8.682;2023-04-01T03:08:42;4.67;;;1.97;;
2161;SDS011;1087;50.226;8.682;2023-04-01T03:11:09;2.47;;;1.53;;
2161;SDS011;1087;50.226;8.682;2023-04-01T03:13:35;2.67;;;1.40;;
2161;SDS011;1087;50.226;8.682;2023-04-01T03:16:01;3.40;;;1.73;;
2161;SDS011;1087;50.226;8.682;2023-04-01T03:18:27;3.27;;;2.03;;
2161;SDS011;1087;50.226;8.682;2023-04-01T03:20:52;1.73;;;1.40;;
2161;SDS011;1087;50.226;8.682;2023-04-01T03:23:18;3.80;;;1.97;;
2161;SDS011;1087;50.226;8.682;2023-04-01T03:25:46;3.23;;;1.50;;
2161;SDS011;1087;50.226;8.682;2023-04-01T03:28:12;4.10;;;1.83;;
2161;SDS011;1087;50.226;8.682;2023-04-01T03:30:38;2.50;;;2.00;;
2161;SDS011;1087;50.226;8.682;2023-04-01T03:33:03;3.03;;;1.53;;
2161;SDS011;1087;50.226;8.682;2023-04-01T03:35:29;2.80;;;2.00;;
2161;SDS011;1087;50.226;8.682;2023-04-01T03:37:54;6.10;;;1.87;;
2161;SDS011;1087;50.226;8.682;2023-04-01T03:40:21;6.40;;;1.80;;
2161;SDS011;1087;50.226;8.682;2023-04-01T03:42:47;2.27;;;2.07;;
2161;SDS011;1087;50.226;8.682;2023-04-01T03:45:12;3.33;;;1.37;;
2161;SDS011;1087;50.226;8.682;2023-04-01T03:47:38;2.90;;;1.57;;
2161;SDS011;1087;50.226;8.682;2023-04-01T03:50:05;3.30;;;1.83;;
2161;SDS011;1087;50.226;8.682;2023-04-01T03:52:32;3.13;;;1.87;;
2161;SDS011;1087;50.226;8.682;2023-04-01T03:54:58;2.73;;;1.83;;
2161;SDS011;1087;50.226;8.682;2023-04-01T03:57:23;4.80;;;1.70;;
2161;SDS011;1087;50.226;8.682;2023-04-01T03:59:49;5.40;;;1.93;;
2161;SDS011;1087;50.226;8.682;2023-04-01T04:02:14;4.50;;;2.13;;
2161;SDS011;1087;50.226;8.682;2023-04-01T04:04:40;5.00;;;1.53;;
2161;SDS011;1087;50.226;8.682;2023-04-01T04:07:06;5.40;;;1.83;;
2161;SDS011;1087;50.226;8.682;2023-04-01T04:09:31;5.30;;;2.40;;
2161;SDS011;1087;50.226;8.682;2023-04-01T04:11:58;3.73;;;1.60;;
2161;SDS011;1087;50.226;8.682;2023-04-01T04:14:24;2.60;;;1.50;;
2161;SDS011;1087;50.226;8.682;2023-04-01T04:16:49;6.43;;;2.20;;
2161;SDS011;1087;50.226;8.682;2023-04-01T04:19:15;2.60;;;1.73;;
2161;SDS011;1087;50.226;8.682;2023-04-01T04:21:41;3.13;;;1.70;;
2161;SDS011;1087;50.226;8.682;2023-04-01T04:24:07;7.93;;;2.13;;
2161;SDS011;1087;50.226;8.682;2023-04-01T04:26:33;6.70;;;2.20;;
2161;SDS011;1087;50.226;8.682;2023-04-01T04:28:58;4.30;;;1.87;;
2161;SDS011;1087;50.226;8.682;2023-04-01T04:31:25;5.77;;;2.60;;
2161;SDS011;1087;50.226;8.682;2023-04-01T04:33:51;3.33;;;1.70;;
2161;SDS011;1087;50.226;8.682;2023-04-01T04:36:17;5.30;;;1.50;;
2161;SDS011;1087;50.226;8.682;2023-04-01T04:38:43;6.63;;;1.30;;
2161;SDS011;1087;50.226;8.682;2023-04-01T04:41:09;4.40;;;1.80;;
2161;SDS011;1087;50.226;8.682;2023-04-01T04:43:37;6.00;;;1.90;;
2161;SDS011;1087;50.226;8.682;2023-04-01T04:46:07;9.53;;;1.83;;
2161;SDS011;1087;50.226;8.682;2023-04-01T04:48:33;1.70;;;1.10;;
2161;SDS011;1087;50.226;8.682;2023-04-01T04:50:59;2.10;;;1.23;;
2161;SDS011;1087;50.226;8.682;2023-04-01T04:53:25;6.60;;;1.40;;
2161;SDS011;1087;50.226;8.682;2023-04-01T04:55:51;3.10;;;1.47;;
2161;SDS011;1087;50.226;8.682;2023-04-01T04:58:17;3.37;;;1.50;;
2161;SDS011;1087;50.226;8.682;2023-04-01T05:00:43;3.53;;;1.70;;
2161;SDS011;1087;50.226;8.682;2023-04-01T05:03:09;2.70;;;1.53;;
2161;SDS011;1087;50.226;8.682;2023-04-01T05:05:34;2.53;;;1.90;;
2161;SDS011;1087;50.226;8.682;2023-04-01T05:08:00;4.37;;;1.87;;
2161;SDS011;1087;50.226;8.682;2023-04-01T05:10:26;3.37;;;1.67;;
2161;SDS011;1087;50.226;8.682;2023-04-01T05:12:52;3.83;;;1.70;;
2161;SDS011;1087;50.226;8.682;2023-04-01T05:15:17;2.50;;;1.60;;
2161;SDS011;1087;50.226;8.682;2023-04-01T05:17:43;4.00;;;1.60;;
2161;SDS011;1087;50.226;8.682;2023-04-01T05:20:10;3.70;;;2.20;;
2161;SDS011;1087;50.226;8.682;2023-04-01T05:22:37;3.17;;;1.63;;
2161;SDS011;1087;50.226;8.682;2023-04-01T05:25:03;2.27;;;1.60;;
2161;SDS011;1087;50.226;8.682;2023-04-01T05:27:29;4.67;;;1.97;;
2161;SDS011;1087;50.226;8.682;2023-04-01T05:29:54;3.07;;;1.57;;
2161;SDS011;1087;50.226;8.682;2023-04-01T05:32:20;3.90;;;1.80;;
2161;SDS011;1087;50.226;8.682;2023-04-01T05:34:46;3.90;;;1.53;;
2161;SDS011;1087;50.226;8.682;2023-04-01T05:37:14;2.80;;;1.60;;
2161;SDS011;1087;50.226;8.682;2023-04-01T05:39:40;2.57;;;1.73;;
2161;SDS011;1087;50.226;8.682;2023-04-01T05:42:06;4.77;;;2.03;;
2161;SDS011;1087;50.226;8.682;2023-04-01T05:44:32;4.03;;;1.30;;
2161;SDS011;1087;50.226;8.682;2023-04-01T05:46:58;4.33;;;1.73;;
2161;SDS011;1087;50.226;8.682;2023-04-01T05:49:24;3.90;;;1.50;;
2161;SDS011;1087;50.226;8.682;2023-04-01T05:51:49;2.50;;;1.50;;
2161;SDS011;1087;50.226;8.682;2023-04-01T05:54:16;3.10;;;1.60;;
2161;SDS011;1087;50.226;8.682;2023-04-01T05:56:41;4.40;;;1.50;;
2161;SDS011;1087;50.226;8.682;2023-04-01T05:59:09;2.20;;;1.50;;
2161;SDS011;1087;50.226;8.682;2023-04-01T06:01:35;3.10;;;1.23;;
2161;SDS011;1087;50.226;8.682;2023-04-01T06:04:01;2.33;;;1.30;;
2161;SDS011;1087;50.226;8.682;2023-04-01T06:06:27;2.87;;;1.33;;
2161;SDS011;1087;50.226;8.682;2023-04-01T06:08:56;3.23;;;2.50;;
2161;SDS011;1087;50.226;8.682;2023-04-01T06:11:29;4.43;;;1.77;;
2161;SDS011;1087;50.226;8.682;2023-04-01T06:14:10;4.70;;;1.83;;
2161;SDS011;1087;50.226;8.682;2023-04-01T06:17:14;2.27;;;1.43;;
2161;SDS011;1087;50.226;8.682;2023-04-01T06:30:59;2.53;;;1.33;;
2161;SDS011;1087;50.226;8.682;2023-04-01T06:41:22;1.47;;;1.27;;
2161;SDS011;1087;50.226;8.682;2023-04-01T06:43:59;3.20;;;1.57;;
2161;SDS011;1087;50.226;8.682;2023-04-01T06:46:53;2.03;;;1.10;;
2161;SDS011;1087;50.226;8.682;2023-04-01T06:49:41;1.90;;;1.67;;
2161;SDS011;1087;50.226;8.682;2023-04-01T06:52:26;2.30;;;1.37;;
2161;SDS011;1087;50.226;8.682;2023-04-01T06:57:53;2.63;;;1.30;;
2161;SDS011;1087;50.226;8.682;2023-04-01T07:00:30;4.30;;;1.37;;
2161;SDS011;1087;50.226;8.682;2023-04-01T07:05:58;1.47;;;1.20;;
2161;SDS011;1087;50.226;8.682;2023-04-01T07:08:29;2.07;;;1.10;;
2161;SDS011;1087;50.226;8.682;2023-04-01T07:11:01;2.23;;;1.13;;
2161;SDS011;1087;50.226;8.682;2023-04-01T07:13:49;3.73;;;1.23;;
2161;SDS011;1087;50.226;8.682;2023-04-01T07:16:24;3.00;;;1.33;;
2161;SDS011;1087;50.226;8.682;2023-04-01T07:19:04;1.90;;;1.30;;
2161;SDS011;1087;50.226;8.682;2023-04-01T07:24:31;1.50;;;1.03;;
2161;SDS011;1087;50.226;8.682;2023-04-01T07:26:59;1.63;;;1.10;;
2161;SDS011;1087;50.226;8.682;2023-04-01T07:29:25;1.80;;;1.43;;
2161;SDS011;1087;50.226;8.682;2023-04-01T07:32:07;3.53;;;1.27;;
2161;SDS011;1087;50.226;8.682;2023-04-01T07:37:37;2.40;;;1.20;;
2161;SDS011;1087;50.226;8.682;2023-04-01T07:40:14;1.20;;;1.00;;
2161;SDS011;1087;50.226;8.682;2023-04-01T07:45:43;1.97;;;1.23;;
2161;SDS011;1087;50.226;8.682;2023-04-01T07:48:38;2.60;;;1.13;;
2161;SDS011;1087;50.226;8.682;2023-04-01T07:54:03;1.20;;;1.00;;
2161;SDS011;1087;50.226;8.682;2023-04-01T07:56:41;2.90;;;1.00;;
2161;SDS011;1087;50.226;8.682;2023-04-01T08:07:43;1.87;;;1.07;;
2161;SDS011;1087;50.226;8.682;2023-04-01T08:13:13;1.30;;;1.20;;
2161;SDS011;1087;50.226;8.682;2023-04-01T08:18:46;3.60;;;1.07;;
2161;SDS011;1087;50.226;8.682;2023-04-01T08:21:28;1.70;;;1.10;;
2161;SDS011;1087;50.226;8.682;2023-04-01T08:23:57;2.00;;;1.33;;
2161;SDS011;1087;50.226;8.682;2023-04-01T08:28:56;2.03;;;1.00;;
2161;SDS011;1087;50.226;8.682;2023-04-01T08:31:30;1.07;;;0.97;;
2161;SDS011;1087;50.226;8.682;2023-04-01T08:34:02;1.50;;;0.80;;
2161;SDS011;1087;50.226;8.682;2023-04-01T08:36:34;1.27;;;1.00;;
2161;SDS011;1087;50.226;8.682;2023-04-01T08:39:04;1.10;;;1.00;;
2161;SDS011;1087;50.226;8.682;2023-04-01T08:44:31;1.40;;;0.90;;
2161;SDS011;1087;50.226;8.682;2023-04-01T08:50:12;2.20;;;0.80;;
2161;SDS011;1087;50.226;8.682;2023-04-01T09:01:33;1.30;;;1.10;;
2161;SDS011;1087;50.226;8.682;2023-04-01T09:13:05;1.07;;;0.97;;
2161;SDS011;1087;50.226;8.682;2023-04-01T09:35:24;1.67;;;1.27;;
2161;SDS011;1087;50.226;8.682;2023-04-01T09:38:19;1.00;;;0.90;;
2161;SDS011;1087;50.226;8.682;2023-04-01T09:46:11;1.70;;;1.07;;
2161;SDS011;1087;50.226;8.682;2023-04-01T09:53:56;1.20;;;1.10;;
2161;SDS011;1087;50.226;8.682;2023-04-01T10:02:53;1.77;;;1.20;;
2161;SDS011;1087;50.226;8.682;2023-04-01T10:14:10;1.30;;;1.00;;
2161;SDS011;1087;50.226;8.682;2023-04-01T10:20:02;1.33;;;1.07;;
2161;SDS011;1087;50.226;8.682;2023-04-01T10:28:32;1.10;;;1.00;;
2161;SDS011;1087;50.226;8.682;2023-04-01T10:36:57;1.37;;;1.27;;
2161;SDS011;1087;50.226;8.682;2023-04-01T10:42:59;1.57;;;1.17;;
2161;SDS011;1087;50.226;8.682;2023-04-01T10:48:12;1.40;;;1.20;;
2161;SDS011;1087;50.226;8.682;2023-04-01T10:53:27;1.80;;;1.33;;
2161;SDS011;1087;50.226;8.682;2023-04-01T10:59:03;1.40;;;1.30;;
2161;SDS011;1087;50.226;8.682;2023-04-01T11:25:04;1.30;;;1.20;;
2161;SDS011;1087;50.226;8.682;2023-04-01T11:27:56;1.17;;;1.07;;
2161;SDS011;1087;50.226;8.682;2023-04-01T11:41:51;1.40;;;1.30;;
2161;SDS011;1087;50.226;8.682;2023-04-01T11:44:29;2.10;;;2.00;;
2161;SDS011;1087;50.226;8.682;2023-04-01T11:47:13;1.30;;;0.90;;
2161;SDS011;1087;50.226;8.682;2023-04-01T11:55:50;1.13;;;1.03;;
2161;SDS011;1087;50.226;8.682;2023-04-01T11:58:25;1.37;;;1.00;;
2161;SDS011;1087;50.226;8.682;2023-04-01T12:04:54;1.17;;;1.00;;
2161;SDS011;1087;50.226;8.682;2023-04-01T12:18:41;1.50;;;1.20;;
2161;SDS011;1087;50.226;8.682;2023-04-01T12:26:47;1.40;;;1.30;;
2161;SDS011;1087;50.226;8.682;2023-04-01T12:35:20;1.10;;;1.00;;
2161;SDS011;1087;50.226;8.682;2023-04-01T12:38:08;1.13;;;1.03;;
2161;SDS011;1087;50.226;8.682;2023-04-01T12:41:01;1.00;;;0.80;;
2161;SDS011;1087;50.226;8.682;2023-04-01T12:46:05;0.97;;;0.87;;
2161;SDS011;1087;50.226;8.682;2023-04-01T12:57:04;1.70;;;1.10;;
2161;SDS011;1087;50.226;8.682;2023-04-01T13:02:46;1.33;;;1.20;;
2161;SDS011;1087;50.226;8.682;2023-04-01T13:08:26;1.40;;;1.13;;
2161;SDS011;1087;50.226;8.682;2023-04-01T13:11:18;1.53;;;0.90;;
2161;SDS011;1087;50.226;8.682;2023-04-01T13:22:17;1.13;;;1.03;;
2161;SDS011;1087;50.226;8.682;2023-04-01T13:25:03;1.30;;;0.90;;
2161;SDS011;1087;50.226;8.682;2023-04-01T13:32:53;1.40;;;1.30;;
2161;SDS011;1087;50.226;8.682;2023-04-01T13:41:34;1.50;;;1.40;;
2161;SDS011;1087;50.226;8.682;2023-04-01T13:44:22;1.30;;;1.20;;
2161;SDS011;1087;50.226;8.682;2023-04-01T13:47:17;1.53;;;1.43;;
2161;SDS011;1087;50.226;8.682;2023-04-01T13:58:43;1.97;;;1.30;;
2161;SDS011;1087;50.226;8.682;2023-04-01T14:01:41;2.00;;;1.20;;
2161;SDS011;1087;50.226;8.682;2023-04-01T14:07:46;1.30;;;1.20;;
2161;SDS011;1087;50.226;8.682;2023-04-01T14:12:51;1.00;;;0.97;;
2161;SDS011;1087;50.226;8.682;2023-04-01T14:18:34;1.03;;;0.93;;
2161;SDS011;1087;50.226;8.682;2023-04-01T14:21:12;1.57;;;1.30;;
2161;SDS011;1087;50.226;8.682;2023-04-01T14:23:51;1.93;;;1.60;;
2161;SDS011;1087;50.226;8.682;2023-04-01T14:29:34;1.50;;;1.00;;
2161;SDS011;1087;50.226;8.682;2023-04-01T14:32:36;0.80;;;0.80;;
2161;SDS011;1087;50.226;8.682;2023-04-01T14:38:10;0.80;;;0.80;;
2161;SDS011;1087;50.226;8.682;2023-04-01T14:49:35;1.97;;;0.90;;
2161;SDS011;1087;50.226;8.682;2023-04-01T14:52:05;1.10;;;1.00;;
2161;SDS011;1087;50.226;8.682;2023-04-01T14:54:40;1.20;;;1.10;;
2161;SDS011;1087;50.226;8.682;2023-04-01T14:59:40;0.93;;;0.83;;
2161;SDS011;1087;50.226;8.682;2023-04-01T15:02:33;1.07;;;1.00;;
2161;SDS011;1087;50.226;8.682;2023-04-01T15:05:16;1.10;;;1.00;;
2161;SDS011;1087;50.226;8.682;2023-04-01T15:08:34;1.07;;;0.97;;
2161;SDS011;1087;50.226;8.682;2023-04-01T15:11:25;1.60;;;0.87;;
2161;SDS011;1087;50.226;8.682;2023-04-01T15:14:27;1.20;;;1.10;;
2161;SDS011;1087;50.226;8.682;2023-04-01T15:22:46;1.43;;;1.00;;
2161;SDS011;1087;50.226;8.682;2023-04-01T15:25:30;2.80;;;0.90;;
2161;SDS011;1087;50.226;8.682;2023-04-01T15:28:32;1.73;;;0.80;;
2161;SDS011;1087;50.226;8.682;2023-04-01T15:33:41;1.63;;;1.53;;
2161;SDS011;1087;50.226;8.682;2023-04-01T15:36:27;2.50;;;2.10;;
2161;SDS011;1087;50.226;8.682;2023-04-01T15:39:17;2.33;;;1.10;;
2161;SDS011;1087;50.226;8.682;2023-04-01T15:47:35;2.93;;;1.20;;
2161;SDS011;1087;50.226;8.682;2023-04-01T15:55:31;2.90;;;1.50;;
2161;SDS011;1087;50.226;8.682;2023-04-01T15:58:06;3.20;;;1.20;;
2161;SDS011;1087;50.226;8.682;2023-04-01T16:00:50;1.17;;;1.03;;
2161;SDS011;1087;50.226;8.682;2023-04-01T16:06:17;1.10;;;1.00;;
2161;SDS011;1087;50.226;8.682;2023-04-01T16:14:38;1.20;;;1.10;;
2161;SDS011;1087;50.226;8.682;2023-04-01T16:17:31;1.23;;;1.13;;
2161;SDS011;1087;50.226;8.682;2023-04-01T16:22:40;1.87;;;1.07;;
2161;SDS011;1087;50.226;8.682;2023-04-01T16:25:54;1.40;;;1.10;;
2161;SDS011;1087;50.226;8.682;2023-04-01T16:30:48;1.37;;;1.10;;
2161;SDS011;1087;50.226;8.682;2023-04-01T16:33:23;1.40;;;1.03;;
2161;SDS011;1087;50.226;8.682;2023-04-01T16:35:58;1.33;;;1.10;;
2161;SDS011;1087;50.226;8.682;2023-04-01T16:38:33;1.60;;;1.50;;
2161;SDS011;1087;50.226;8.682;2023-04-01T16:41:17;2.07;;;1.20;;
2161;SDS011;1087;50.226;8.682;2023-04-01T16:43:51;1.30;;;1.13;;
2161;SDS011;1087;50.226;8.682;2023-04-01T16:46:31;3.20;;;3.00;;
2161;SDS011;1087;50.226;8.682;2023-04-01T16:56:47;5.30;;;2.87;;
2161;SDS011;1087;50.226;8.682;2023-04-01T16:59:38;2.70;;;2.50;;
2161;SDS011;1087;50.226;8.682;2023-04-01T17:02:12;7.30;;;6.20;;
2161;SDS011;1087;50.226;8.682;2023-04-01T17:10:05;1.87;;;1.70;;
2161;SDS011;1087;50.226;8.682;2023-04-01T17:16:01;1.77;;;1.67;;
2161;SDS011;1087;50.226;8.682;2023-04-01T17:19:02;3.47;;;3.17;;
2161;SDS011;1087;50.226;8.682;2023-04-01T17:21:45;3.73;;;2.90;;
2161;SDS011;1087;50.226;8.682;2023-04-01T17:30:24;1.93;;;1.20;;
2161;SDS011;1087;50.226;8.682;2023-04-01T17:35:38;1.50;;;1.40;;
2161;SDS011;1087;50.226;8.682;2023-04-01T17:43:34;2.70;;;2.30;;
2161;SDS011;1087;50.226;8.682;2023-04-01T17:49:02;2.27;;;1.60;;
2161;SDS011;1087;50.226;8.682;2023-04-01T17:51:42;1.87;;;1.50;;
2161;SDS011;1087;50.226;8.682;2023-04-01T17:59:53;3.53;;;3.23;;
2161;SDS011;1087;50.226;8.682;2023-04-01T18:02:29;2.73;;;2.53;;
2161;SDS011;1087;50.226;8.682;2023-04-01T18:19:29;2.80;;;1.17;;
2161;SDS011;1087;50.226;8.682;2023-04-01T18:22:15;1.80;;;1.10;;
2161;SDS011;1087;50.226;8.682;2023-04-01T18:24:48;3.50;;;3.17;;
2161;SDS011;1087;50.226;8.682;2023-04-01T18:27:41;2.23;;;1.87;;
2161;SDS011;1087;50.226;8.682;2023-04-01T18:30:17;2.60;;;1.30;;
2161;SDS011;1087;50.226;8.682;2023-04-01T18:33:00;1.40;;;1.00;;
2161;SDS011;1087;50.226;8.682;2023-04-01T18:38:29;2.33;;;1.90;;
2161;SDS011;1087;50.226;8.682;2023-04-01T18:41:12;4.17;;;1.80;;
2161;SDS011;1087;50.226;8.682;2023-04-01T18:49:06;1.70;;;1.60;;
2161;SDS011;1087;50.226;8.682;2023-04-01T18:51:51;1.50;;;1.30;;
2161;SDS011;1087;50.226;8.682;2023-04-01T18:54:30;1.77;;;1.57;;
2161;SDS011;1087;50.226;8.682;2023-04-01T18:57:16;3.03;;;2.70;;
2161;SDS011;1087;50.226;8.682;2023-04-01T19:02:19;2.40;;;2.17;;
2161;SDS011;1087;50.226;8.682;2023-04-01T19:05:09;2.83;;;2.20;;
2161;SDS011;1087;50.226;8.682;2023-04-01T19:07:50;2.80;;;2.10;;
2161;SDS011;1087;50.226;8.682;2023-04-01T19:10:22;3.50;;;2.70;;
2161;SDS011;1087;50.226;8.682;2023-04-01T19:15:50;5.60;;;3.93;;
2161;SDS011;1087;50.226;8.682;2023-04-01T19:21:10;4.70;;;3.47;;
2161;SDS011;1087;50.226;8.682;2023-04-01T19:26:57;7.13;;;3.90;;
2161;SDS011;1087;50.226;8.682;2023-04-01T19:38:53;6.20;;;4.50;;
2161;SDS011;1087;50.226;8.682;2023-04-01T19:44:09;7.13;;;5.43;;
2161;SDS011;1087;50.226;8.682;2023-04-01T19:50:03;5.10;;;4.60;;
2161;SDS011;1087;50.226;8.682;2023-04-01T19:52:52;5.50;;;5.00;;
2161;SDS011;1087;50.226;8.682;2023-04-01T19:58:13;5.30;;;4.23;;
2161;SDS011;1087;50.226;8.682;2023-04-01T20:00:58;4.83;;;3.47;;
2161;SDS011;1087;50.226;8.682;2023-04-01T20:03:37;6.93;;;6.00;;
2161;SDS011;1087;50.226;8.682;2023-04-01T20:06:11;5.10;;;4.10;;
2161;SDS011;1087;50.226;8.682;2023-04-01T20:08:43;4.60;;;4.20;;
2161;SDS011;1087;50.226;8.682;2023-04-01T20:11:18;3.73;;;3.37;;
2161;SDS011;1087;50.226;8.682;2023-04-01T20:19:39;3.77;;;3.47;;
2161;SDS011;1087;50.226;8.682;2023-04-01T20:22:29;4.03;;;3.30;;
2161;SDS011;1087;50.226;8.682;2023-04-01T20:27:49;3.43;;;3.00;;
2161;SDS011;1087;50.226;8.682;2023-04-01T20:30:22;3.70;;;3.13;;
2161;SDS011;1087;50.226;8.682;2023-04-01T20:38:25;5.17;;;4.77;;
2161;SDS011;1087;50.226;8.682;2023-04-01T20:46:23;2.77;;;2.30;;
2161;SDS011;1087;50.226;8.682;2023-04-01T20:49:19;3.67;;;3.37;;
2161;SDS011;1087;50.226;8.682;2023-04-01T20:54:39;3.47;;;2.90;;
2161;SDS011;1087;50.226;8.682;2023-04-01T20:57:19;2.37;;;2.17;;
2161;SDS011;1087;50.226;8.682;2023-04-01T21:08:24;2.60;;;2.33;;
2161;SDS011;1087;50.226;8.682;2023-04-01T21:11:01;3.70;;;2.57;;
2161;SDS011;1087;50.226;8.682;2023-04-01T21:19:25;3.83;;;2.57;;
2161;SDS011;1087;50.226;8.682;2023-04-01T21:24:36;2.20;;;2.00;;
2161;SDS011;1087;50.226;8.682;2023-04-01T21:29:37;2.70;;;1.97;;
2161;SDS011;1087;50.226;8.682;2023-04-01T21:46:24;3.57;;;2.73;;
2161;SDS011;1087;50.226;8.682;2023-04-01T21:54:50;2.73;;;1.90;;
2161;SDS011;1087;50.226;8.682;2023-04-01T22:00:21;3.43;;;2.70;;
2161;SDS011;1087;50.226;8.682;2023-04-01T22:03:00;3.00;;;2.80;;
2161;SDS011;1087;50.226;8.682;2023-04-01T22:13:32;3.13;;;2.83;;
2161;SDS011;1087;50.226;8.682;2023-04-01T22:16:11;4.27;;;3.03;;
2161;SDS011;1087;50.226;8.682;2023-04-01T22:19:25;4.23;;;3.13;;
2161;SDS011;1087;50.226;8.682;2023-04-01T22:24:55;3.87;;;3.40;;
2161;SDS011;1087;50.226;8.682;2023-04-01T22:27:45;3.37;;;3.17;;
2161;SDS011;1087;50.226;8.682;2023-04-01T22:30:24;3.77;;;3.40;;
2161;SDS011;1087;50.226;8.682;2023-04-01T22:33:10;3.87;;;3.57;;
2161;SDS011;1087;50.226;8.682;2023-04-01T22:35:55;4.27;;;3.87;;
2161;SDS011;1087;50.226;8.682;2023-04-01T22:44:05;3.47;;;3.23;;
2161;SDS011;1087;50.226;8.682;2023-04-01T22:46:59;4.03;;;3.63;;
2161;SDS011;1087;50.226;8.682;2023-04-01T22:50:10;4.60;;;3.80;;
2161;SDS011;1087;50.226;8.682;2023-04-01T22:52:23;4.70;;;4.30;;
2161;SDS011;1087;50.226;8.682;2023-04-01T22:55:16;3.83;;;3.20;;
2161;SDS011;1087;50.226;8.682;2023-04-01T22:58:05;4.00;;;3.70;;
2161;SDS011;1087;50.226;8.682;2023-04-01T23:00:50;4.13;;;3.77;;
2161;SDS011;1087;50.226;8.682;2023-04-01T23:03:25;3.43;;;3.13;;
2161;SDS011;1087;50.226;8.682;2023-04-01T23:05:56;4.83;;;3.93;;
2161;SDS011;1087;50.226;8.682;2023-04-01T23:09:25;4.33;;;4.03;;
2161;SDS011;1087;50.226;8.682;2023-04-01T23:14:19;17.77;;;13.03;;
2161;SDS011;1087;50.226;8.682;2023-04-01T23:19:56;4.33;;;3.90;;
2161;SDS011;1087;50.226;8.682;2023-04-01T23:22:46;4.40;;;3.87;;
2161;SDS011;1087;50.226;8.682;2023-04-01T23:27:47;6.13;;;4.13;;
2161;SDS011;1087;50.226;8.682;2023-04-01T23:38:16;5.40;;;4.90;;
2161;SDS011;1087;50.226;8.682;2023-04-01T23:40:42;4.70;;;4.30;;
2161;SDS011;1087;50.226;8.682;2023-04-01T23:43:25;4.93;;;4.40;;
2161;SDS011;1087;50.226;8.682;2023-04-01T23:45:56;4.33;;;3.93;;
2161;SDS011;1087;50.226;8.682;2023-04-01T23:48:26;4.80;;;4.27;;
2161;SDS011;1087;50.226;8.682;2023-04-01T23:50:56;4.37;;;3.97;;
2161;SDS011;1087;50.226;8.682;2023-04-01T23:53:23;3.93;;;3.63;;
2161;SDS011;1087;50.226;8.682;2023-04-01T23:55:53;4.53;;;3.83;;
2161;SDS011;1087;50.226;8.682;2023-04-01T23:58:24;3.67;;;3.37;;
